createdAt,value
2017-02-17T00:00:29.402Z,7.88
2017-02-17T00:01:09.854Z,7.9
2017-02-17T00:01:50.287Z,7.84
2017-02-17T00:02:30.746Z,7.9
2017-02-17T00:03:11.261Z,8.01
2017-02-17T00:03:51.767Z,7.88
2017-02-17T00:04:32.267Z,7.88
2017-02-17T00:05:12.752Z,7.9
2017-02-17T00:05:53.186Z,7.83
2017-02-17T00:06:33.644Z,7.81
2017-02-17T00:07:14.088Z,7.88
2017-02-17T00:07:54.632Z,7.85
2017-02-17T00:08:35.099Z,7.83
2017-02-17T00:09:15.547Z,7.84
2017-02-17T00:09:56.021Z,7.77
2017-02-17T00:10:36.432Z,7.83
2017-02-17T00:11:16.938Z,7.85
2017-02-17T00:11:57.382Z,7.84
2017-02-17T00:12:37.833Z,7.84
2017-02-17T00:13:18.298Z,7.95
2017-02-17T00:13:58.740Z,7.9
2017-02-17T00:14:39.164Z,7.85
2017-02-17T00:15:19.697Z,8.01
2017-02-17T00:16:00.077Z,7.99
2017-02-17T00:16:40.643Z,8.09
2017-02-17T00:17:21.206Z,8.13
2017-02-17T00:18:01.593Z,8.14
2017-02-17T00:18:42.082Z,8.09
2017-02-17T00:19:22.483Z,8.14
2017-02-17T00:20:02.978Z,8.2
2017-02-17T00:20:43.400Z,8.21
2017-02-17T00:21:23.813Z,8.18
2017-02-17T00:22:04.276Z,8.17
2017-02-17T00:22:44.799Z,8.24
2017-02-17T00:23:25.244Z,8.17
2017-02-17T00:24:05.709Z,8.23
2017-02-17T00:24:46.391Z,8.23
2017-02-17T00:25:27.588Z,8.27
2017-02-17T00:26:08.058Z,8.24
2017-02-17T00:26:48.523Z,8.18
2017-02-17T00:27:28.970Z,8.11
2017-02-17T00:28:09.430Z,8.14
2017-02-17T00:28:49.886Z,8.18
2017-02-17T00:29:30.310Z,8.06
2017-02-17T00:30:10.773Z,8.09
2017-02-17T00:30:51.222Z,8.06
2017-02-17T00:31:31.775Z,7.96
2017-02-17T00:32:12.223Z,7.9
2017-02-17T00:32:52.667Z,7.83
2017-02-17T00:33:33.092Z,7.99
2017-02-17T00:34:13.572Z,7.87
2017-02-17T00:34:54.477Z,7.84
2017-02-17T00:35:35.206Z,7.83
2017-02-17T00:36:15.593Z,7.84
2017-02-17T00:36:56.147Z,7.75
2017-02-17T00:37:36.626Z,7.81
2017-02-17T00:38:17.053Z,7.67
2017-02-17T00:38:57.498Z,7.69
2017-02-17T00:39:38.025Z,7.77
2017-02-17T00:40:18.499Z,7.75
2017-02-17T00:40:58.961Z,7.75
2017-02-17T00:41:39.668Z,7.77
2017-02-17T00:42:20.118Z,7.78
2017-02-17T00:43:00.548Z,7.75
2017-02-17T00:43:41.045Z,7.7
2017-02-17T00:44:21.517Z,7.75
2017-02-17T00:45:02.480Z,7.74
2017-02-17T00:45:43.844Z,7.77
2017-02-17T00:46:24.514Z,7.67
2017-02-17T00:47:04.953Z,7.75
2017-02-17T00:47:46.450Z,7.62
2017-02-17T00:48:26.877Z,7.69
2017-02-17T00:49:07.982Z,7.61
2017-02-17T00:49:48.932Z,7.72
2017-02-17T00:50:30.230Z,7.67
2017-02-17T00:51:10.713Z,7.67
2017-02-17T00:51:51.146Z,7.77
2017-02-17T00:52:31.901Z,7.64
2017-02-17T00:53:12.347Z,7.78
2017-02-17T00:53:52.815Z,7.8
2017-02-17T00:54:33.253Z,7.77
2017-02-17T00:55:13.715Z,7.9
2017-02-17T00:55:54.143Z,7.88
2017-02-17T00:56:34.546Z,7.87
2017-02-17T00:57:15.033Z,7.87
2017-02-17T00:57:55.437Z,7.95
2017-02-17T00:58:35.925Z,7.91
2017-02-17T00:59:16.389Z,7.91
2017-02-17T00:59:56.818Z,7.85
2017-02-17T01:00:37.265Z,7.98
2017-02-17T01:01:17.737Z,7.96
2017-02-17T01:01:58.157Z,8.05
2017-02-17T01:02:38.618Z,7.96
2017-02-17T01:03:19.061Z,8.03
2017-02-17T01:03:59.525Z,7.99
2017-02-17T01:04:39.968Z,8.01
2017-02-17T01:05:20.425Z,8.06
2017-02-17T01:06:00.903Z,8.08
2017-02-17T01:06:41.335Z,8.09
2017-02-17T01:07:21.807Z,8.08
2017-02-17T01:08:02.240Z,8.08
2017-02-17T01:08:42.670Z,8.06
2017-02-17T01:09:23.151Z,8.05
2017-02-17T01:10:03.586Z,8.05
2017-02-17T01:10:44.033Z,8.08
2017-02-17T01:11:24.478Z,8.01
2017-02-17T01:12:04.919Z,7.96
2017-02-17T01:12:45.355Z,8.05
2017-02-17T01:13:25.803Z,8.08
2017-02-17T01:14:06.268Z,8.13
2017-02-17T01:14:46.797Z,8.08
2017-02-17T01:15:27.249Z,8.01
2017-02-17T01:16:07.711Z,8.06
2017-02-17T01:16:48.193Z,8.08
2017-02-17T01:17:28.643Z,8.02
2017-02-17T01:18:09.132Z,8.01
2017-02-17T01:18:49.574Z,8.02
2017-02-17T01:19:30.040Z,7.98
2017-02-17T01:20:10.495Z,7.96
2017-02-17T01:20:50.926Z,8.01
2017-02-17T01:21:31.399Z,7.98
2017-02-17T01:22:11.784Z,8.01
2017-02-17T01:22:52.279Z,7.96
2017-02-17T01:23:32.726Z,7.96
2017-02-17T01:24:13.190Z,7.83
2017-02-17T01:24:53.630Z,7.91
2017-02-17T01:25:34.134Z,7.88
2017-02-17T01:26:14.544Z,7.87
2017-02-17T01:26:54.991Z,7.84
2017-02-17T01:27:35.526Z,7.87
2017-02-17T01:28:16.015Z,7.84
2017-02-17T01:28:56.469Z,7.84
2017-02-17T01:29:36.944Z,7.88
2017-02-17T01:30:17.368Z,7.85
2017-02-17T01:30:57.829Z,7.78
2017-02-17T01:31:38.362Z,7.74
2017-02-17T01:32:18.783Z,7.8
2017-02-17T01:32:59.219Z,7.81
2017-02-17T01:33:39.710Z,7.78
2017-02-17T01:34:20.140Z,7.66
2017-02-17T01:35:00.561Z,7.64
2017-02-17T01:35:41.015Z,7.66
2017-02-17T01:36:21.448Z,7.59
2017-02-17T01:37:01.919Z,7.58
2017-02-17T01:37:42.338Z,7.59
2017-02-17T01:38:22.803Z,7.58
2017-02-17T01:39:03.257Z,7.59
2017-02-17T01:39:43.686Z,7.59
2017-02-17T01:40:24.122Z,7.56
2017-02-17T01:41:04.591Z,7.5
2017-02-17T01:41:45.075Z,7.5
2017-02-17T01:42:25.536Z,7.48
2017-02-17T01:43:05.989Z,7.51
2017-02-17T01:43:46.463Z,7.48
2017-02-17T01:44:26.929Z,7.48
2017-02-17T01:45:07.376Z,7.47
2017-02-17T01:45:47.840Z,7.51
2017-02-17T01:46:28.289Z,7.58
2017-02-17T01:47:08.725Z,7.64
2017-02-17T01:47:49.181Z,7.62
2017-02-17T01:48:29.612Z,7.62
2017-02-17T01:49:10.033Z,7.66
2017-02-17T01:49:50.501Z,7.59
2017-02-17T01:50:30.909Z,7.59
2017-02-17T01:51:11.426Z,7.58
2017-02-17T01:51:51.876Z,7.46
2017-02-17T01:52:32.320Z,7.48
2017-02-17T01:53:12.771Z,7.51
2017-02-17T01:53:53.288Z,7.53
2017-02-17T01:54:33.782Z,7.51
2017-02-17T01:55:14.201Z,7.46
2017-02-17T01:55:54.659Z,7.47
2017-02-17T01:56:35.101Z,7.48
2017-02-17T01:57:15.580Z,7.55
2017-02-17T01:57:56.009Z,7.51
2017-02-17T01:58:36.476Z,7.47
2017-02-17T01:59:16.955Z,7.48
2017-02-17T01:59:57.373Z,7.39
2017-02-17T02:00:37.834Z,7.32
2017-02-17T02:01:18.309Z,7.29
2017-02-17T02:01:58.731Z,7.19
2017-02-17T02:02:39.164Z,7.22
2017-02-17T02:03:19.570Z,7.28
2017-02-17T02:04:00.059Z,7.23
2017-02-17T02:04:40.517Z,7.19
2017-02-17T02:05:21.010Z,7.31
2017-02-17T02:06:01.489Z,7.26
2017-02-17T02:06:41.941Z,7.29
2017-02-17T02:07:22.385Z,7.31
2017-02-17T02:08:02.868Z,7.33
2017-02-17T02:08:43.275Z,7.41
2017-02-17T02:09:23.768Z,7.32
2017-02-17T02:10:04.223Z,7.32
2017-02-17T02:10:44.658Z,7.33
2017-02-17T02:11:25.126Z,7.33
2017-02-17T02:12:05.764Z,7.26
2017-02-17T02:12:46.238Z,7.26
2017-02-17T02:13:26.714Z,7.26
2017-02-17T02:14:07.189Z,7.31
2017-02-17T02:14:47.632Z,7.25
2017-02-17T02:15:28.094Z,7.26
2017-02-17T02:16:08.584Z,7.26
2017-02-17T02:16:49.067Z,7.26
2017-02-17T02:17:29.504Z,7.18
2017-02-17T02:18:09.956Z,7.26
2017-02-17T02:18:50.379Z,7.25
2017-02-17T02:19:30.852Z,7.25
2017-02-17T02:20:11.241Z,7.22
2017-02-17T02:20:51.720Z,7.25
2017-02-17T02:21:32.200Z,7.21
2017-02-17T02:22:12.658Z,7.28
2017-02-17T02:22:53.151Z,7.22
2017-02-17T02:23:33.523Z,7.22
2017-02-17T02:24:13.951Z,7.25
2017-02-17T02:24:54.402Z,7.26
2017-02-17T02:25:34.916Z,7.22
2017-02-17T02:26:15.360Z,7.23
2017-02-17T02:26:55.820Z,7.25
2017-02-17T02:27:36.265Z,7.28
2017-02-17T02:28:16.747Z,7.21
2017-02-17T02:28:57.234Z,7.26
2017-02-17T02:29:37.617Z,7.25
2017-02-17T02:30:18.079Z,7.25
2017-02-17T02:30:58.550Z,7.21
2017-02-17T02:31:38.996Z,7.21
2017-02-17T02:32:19.465Z,7.28
2017-02-17T02:32:59.878Z,7.19
2017-02-17T02:33:40.367Z,7.22
2017-02-17T02:34:20.782Z,7.29
2017-02-17T02:35:01.201Z,7.28
2017-02-17T02:35:41.726Z,7.19
2017-02-17T02:36:22.177Z,7.14
2017-02-17T02:37:02.589Z,7.21
2017-02-17T02:37:43.037Z,7.08
2017-02-17T02:38:23.500Z,7.03
2017-02-17T02:39:03.963Z,7.05
2017-02-17T02:39:44.420Z,7.07
2017-02-17T02:40:24.918Z,7.13
2017-02-17T02:41:05.419Z,7.1
2017-02-17T02:41:45.852Z,7.04
2017-02-17T02:42:26.323Z,7.07
2017-02-17T02:43:06.770Z,7.07
2017-02-17T02:43:47.237Z,7.04
2017-02-17T02:44:27.695Z,7.07
2017-02-17T02:45:08.121Z,7.01
2017-02-17T02:45:48.573Z,7.03
2017-02-17T02:46:29.007Z,7.14
2017-02-17T02:47:09.487Z,7.04
2017-02-17T02:47:49.956Z,7.11
2017-02-17T02:48:30.414Z,7.07
2017-02-17T02:49:10.824Z,7.05
2017-02-17T02:49:51.243Z,7.04
2017-02-17T02:50:31.735Z,7.08
2017-02-17T02:51:12.148Z,7.07
2017-02-17T02:51:52.642Z,7.05
2017-02-17T02:52:33.564Z,7.05
2017-02-17T02:53:14.037Z,7.05
2017-02-17T02:53:54.578Z,7
2017-02-17T02:54:34.959Z,7.08
2017-02-17T02:55:15.423Z,7.01
2017-02-17T02:55:55.853Z,6.9
2017-02-17T02:56:36.296Z,6.93
2017-02-17T02:57:16.796Z,6.89
2017-02-17T02:57:57.250Z,6.87
2017-02-17T02:58:37.723Z,6.85
2017-02-17T02:59:18.222Z,6.85
2017-02-17T02:59:58.697Z,6.86
2017-02-17T03:00:39.179Z,6.87
2017-02-17T03:01:19.606Z,6.8
2017-02-17T03:02:00.043Z,6.85
2017-02-17T03:02:40.508Z,6.87
2017-02-17T03:03:21.008Z,6.9
2017-02-17T03:04:01.439Z,6.92
2017-02-17T03:04:41.854Z,6.93
2017-02-17T03:05:22.302Z,7.01
2017-02-17T03:06:02.816Z,6.93
2017-02-17T03:06:43.245Z,6.92
2017-02-17T03:07:23.669Z,6.95
2017-02-17T03:08:04.136Z,6.93
2017-02-17T03:08:44.609Z,6.97
2017-02-17T03:09:25.086Z,6.95
2017-02-17T03:10:05.544Z,6.93
2017-02-17T03:10:46.037Z,6.93
2017-02-17T03:11:26.461Z,6.86
2017-02-17T03:12:06.908Z,6.86
2017-02-17T03:12:47.371Z,6.83
2017-02-17T03:13:27.867Z,6.85
2017-02-17T03:14:08.322Z,6.78
2017-02-17T03:14:48.791Z,6.87
2017-02-17T03:15:29.227Z,6.77
2017-02-17T03:16:09.736Z,6.78
2017-02-17T03:16:50.194Z,6.83
2017-02-17T03:17:30.688Z,6.85
2017-02-17T03:18:11.117Z,6.75
2017-02-17T03:18:51.635Z,6.82
2017-02-17T03:19:32.078Z,6.78
2017-02-17T03:20:12.501Z,6.83
2017-02-17T03:20:52.991Z,6.82
2017-02-17T03:21:33.371Z,6.89
2017-02-17T03:22:13.829Z,6.9
2017-02-17T03:22:54.241Z,7
2017-02-17T03:23:34.718Z,6.9
2017-02-17T03:24:15.152Z,7.01
2017-02-17T03:24:55.681Z,6.97
2017-02-17T03:25:36.138Z,7
2017-02-17T03:26:16.618Z,7.05
2017-02-17T03:26:57.090Z,7
2017-02-17T03:27:37.578Z,7.01
2017-02-17T03:28:18.030Z,7
2017-02-17T03:28:58.438Z,7.01
2017-02-17T03:29:38.891Z,6.96
2017-02-17T03:30:19.317Z,7.01
2017-02-17T03:30:59.771Z,7.04
2017-02-17T03:31:40.263Z,6.96
2017-02-17T03:32:20.735Z,6.9
2017-02-17T03:33:01.195Z,6.89
2017-02-17T03:33:41.674Z,6.95
2017-02-17T03:34:22.160Z,6.92
2017-02-17T03:35:02.626Z,6.95
2017-02-17T03:35:43.070Z,6.96
2017-02-17T03:36:23.527Z,6.93
2017-02-17T03:37:03.977Z,6.93
2017-02-17T03:37:44.449Z,6.93
2017-02-17T03:38:24.876Z,6.9
2017-02-17T03:39:05.320Z,6.92
2017-02-17T03:39:45.749Z,6.89
2017-02-17T03:40:26.194Z,6.8
2017-02-17T03:41:06.622Z,6.85
2017-02-17T03:41:47.113Z,6.86
2017-02-17T03:42:27.604Z,6.86
2017-02-17T03:43:08.005Z,6.75
2017-02-17T03:43:48.472Z,6.87
2017-02-17T03:44:28.904Z,6.74
2017-02-17T03:45:09.353Z,6.7
2017-02-17T03:45:49.792Z,6.74
2017-02-17T03:46:30.252Z,6.8
2017-02-17T03:47:10.696Z,6.8
2017-02-17T03:47:51.146Z,6.74
2017-02-17T03:48:31.604Z,6.71
2017-02-17T03:49:12.055Z,6.65
2017-02-17T03:49:52.486Z,6.68
2017-02-17T03:50:32.972Z,6.67
2017-02-17T03:51:13.423Z,6.7
2017-02-17T03:51:53.873Z,6.64
2017-02-17T03:52:34.308Z,6.67
2017-02-17T03:53:14.809Z,6.71
2017-02-17T03:53:55.282Z,6.77
2017-02-17T03:54:35.698Z,6.77
2017-02-17T03:55:16.139Z,6.78
2017-02-17T03:55:56.603Z,6.75
2017-02-17T03:56:37.098Z,6.77
2017-02-17T03:57:17.539Z,6.74
2017-02-17T03:57:57.980Z,6.74
2017-02-17T03:58:38.417Z,6.83
2017-02-17T03:59:18.960Z,6.74
2017-02-17T03:59:59.438Z,6.83
2017-02-17T04:00:39.876Z,6.77
2017-02-17T04:01:20.282Z,6.78
2017-02-17T04:02:00.756Z,6.7
2017-02-17T04:02:41.182Z,6.89
2017-02-17T04:03:21.666Z,6.8
2017-02-17T04:04:02.118Z,6.87
2017-02-17T04:04:42.566Z,6.82
2017-02-17T04:05:23.028Z,6.9
2017-02-17T04:06:03.466Z,6.96
2017-02-17T04:06:43.958Z,6.92
2017-02-17T04:07:24.417Z,6.89
2017-02-17T04:08:04.902Z,6.9
2017-02-17T04:08:45.372Z,6.87
2017-02-17T04:09:25.810Z,6.9
2017-02-17T04:10:06.279Z,6.87
2017-02-17T04:10:46.697Z,6.89
2017-02-17T04:11:27.145Z,6.9
2017-02-17T04:12:07.583Z,6.92
2017-02-17T04:12:48.031Z,6.95
2017-02-17T04:13:28.511Z,6.87
2017-02-17T04:14:08.960Z,7.01
2017-02-17T04:14:49.398Z,7
2017-02-17T04:15:29.818Z,7.05
2017-02-17T04:16:10.277Z,7
2017-02-17T04:16:50.729Z,7.01
2017-02-17T04:17:31.143Z,7.1
2017-02-17T04:18:11.610Z,7.04
2017-02-17T04:18:52.081Z,7.05
2017-02-17T04:19:32.511Z,7.05
2017-02-17T04:20:12.984Z,7.07
2017-02-17T04:20:53.424Z,7.1
2017-02-17T04:21:33.873Z,7.07
2017-02-17T04:22:14.313Z,7.03
2017-02-17T04:22:54.754Z,7.08
2017-02-17T04:23:35.214Z,7.07
2017-02-17T04:24:15.647Z,7.01
2017-02-17T04:24:56.094Z,6.95
2017-02-17T04:25:36.579Z,7
2017-02-17T04:26:17.051Z,6.89
2017-02-17T04:26:57.498Z,6.89
2017-02-17T04:27:37.975Z,6.87
2017-02-17T04:28:18.460Z,6.87
2017-02-17T04:28:58.846Z,6.78
2017-02-17T04:29:39.318Z,6.75
2017-02-17T04:30:19.762Z,6.77
2017-02-17T04:31:00.210Z,6.82
2017-02-17T04:31:40.768Z,6.67
2017-02-17T04:32:21.238Z,6.72
2017-02-17T04:33:01.705Z,6.65
2017-02-17T04:33:42.103Z,6.67
2017-02-17T04:34:22.549Z,6.62
2017-02-17T04:35:03.041Z,6.57
2017-02-17T04:35:43.476Z,6.6
2017-02-17T04:36:23.901Z,6.53
2017-02-17T04:37:04.450Z,6.62
2017-02-17T04:37:44.876Z,6.6
2017-02-17T04:38:25.289Z,6.59
2017-02-17T04:39:05.771Z,6.59
2017-02-17T04:39:46.966Z,6.54
2017-02-17T04:40:28.150Z,6.53
2017-02-17T04:41:08.628Z,6.41
2017-02-17T04:41:49.152Z,6.38
2017-02-17T04:42:29.627Z,6.43
2017-02-17T04:43:10.113Z,6.41
2017-02-17T04:43:50.645Z,6.43
2017-02-17T04:44:31.065Z,6.39
2017-02-17T04:45:11.510Z,6.43
2017-02-17T04:45:51.973Z,6.41
2017-02-17T04:46:32.400Z,6.44
2017-02-17T04:47:12.880Z,6.52
2017-02-17T04:47:53.331Z,6.44
2017-02-17T04:48:33.937Z,6.59
2017-02-17T04:49:14.423Z,6.6
2017-02-17T04:49:54.863Z,6.56
2017-02-17T04:50:35.281Z,6.59
2017-02-17T04:51:15.748Z,6.57
2017-02-17T04:51:56.185Z,6.49
2017-02-17T04:52:36.682Z,6.64
2017-02-17T04:53:17.113Z,6.59
2017-02-17T04:53:57.624Z,6.57
2017-02-17T04:54:38.069Z,6.64
2017-02-17T04:55:18.511Z,6.65
2017-02-17T04:55:58.973Z,6.62
2017-02-17T04:56:39.404Z,6.68
2017-02-17T04:57:19.883Z,6.67
2017-02-17T04:58:00.354Z,6.78
2017-02-17T04:58:40.804Z,6.65
2017-02-17T04:59:21.221Z,6.72
2017-02-17T05:00:01.680Z,6.75
2017-02-17T05:00:42.121Z,6.72
2017-02-17T05:01:22.575Z,6.77
2017-02-17T05:02:03.044Z,6.82
2017-02-17T05:02:43.467Z,6.82
2017-02-17T05:03:23.955Z,6.8
2017-02-17T05:04:04.382Z,6.72
2017-02-17T05:04:44.849Z,6.65
2017-02-17T05:05:25.295Z,6.85
2017-02-17T05:06:05.777Z,6.82
2017-02-17T05:06:46.228Z,6.87
2017-02-17T05:07:26.630Z,6.77
2017-02-17T05:08:07.141Z,6.87
2017-02-17T05:08:47.593Z,6.82
2017-02-17T05:09:28.033Z,6.86
2017-02-17T05:10:08.473Z,6.86
2017-02-17T05:10:48.915Z,6.93
2017-02-17T05:11:29.389Z,6.9
2017-02-17T05:12:09.919Z,6.92
2017-02-17T05:12:50.381Z,6.89
2017-02-17T05:13:30.885Z,6.87
2017-02-17T05:14:11.368Z,6.9
2017-02-17T05:14:51.807Z,6.93
2017-02-17T05:15:32.312Z,6.9
2017-02-17T05:16:12.734Z,6.95
2017-02-17T05:16:53.157Z,6.96
2017-02-17T05:17:33.788Z,6.95
2017-02-17T05:18:14.268Z,6.92
2017-02-17T05:18:54.719Z,6.89
2017-02-17T05:19:35.145Z,6.92
2017-02-17T05:20:15.569Z,6.92
2017-02-17T05:20:56.059Z,6.85
2017-02-17T05:21:36.504Z,6.86
2017-02-17T05:22:16.992Z,6.95
2017-02-17T05:22:57.529Z,6.82
2017-02-17T05:23:37.900Z,6.82
2017-02-17T05:24:18.375Z,6.9
2017-02-17T05:24:58.846Z,6.9
2017-02-17T05:25:39.285Z,6.92
2017-02-17T05:26:19.740Z,6.87
2017-02-17T05:27:00.156Z,6.89
2017-02-17T05:27:40.712Z,6.89
2017-02-17T05:29:18.295Z,6.9
2017-02-17T05:29:58.749Z,6.86
2017-02-17T05:30:39.170Z,6.9
2017-02-17T05:31:19.719Z,6.89
2017-02-17T05:32:00.371Z,6.95
2017-02-17T05:32:41.000Z,6.95
2017-02-17T05:33:21.336Z,6.89
2017-02-17T05:34:01.785Z,6.89
2017-02-17T05:34:42.225Z,6.82
2017-02-17T05:35:22.713Z,6.82
2017-02-17T05:36:03.159Z,6.85
2017-02-17T05:36:43.903Z,6.78
2017-02-17T05:37:24.362Z,6.77
2017-02-17T05:38:04.839Z,6.85
2017-02-17T05:38:45.260Z,6.8
2017-02-17T05:39:25.724Z,6.68
2017-02-17T05:40:06.171Z,6.7
2017-02-17T05:40:46.620Z,6.67
2017-02-17T05:41:27.111Z,6.64
2017-02-17T05:42:07.535Z,6.62
2017-02-17T05:42:47.980Z,6.62
2017-02-17T05:43:28.426Z,6.59
2017-02-17T05:44:08.878Z,6.57
2017-02-17T05:44:49.331Z,6.54
2017-02-17T05:45:29.757Z,6.57
2017-02-17T05:46:10.207Z,6.53
2017-02-17T05:46:50.659Z,6.53
2017-02-17T05:47:31.209Z,6.54
2017-02-17T05:48:11.564Z,6.57
2017-02-17T05:48:52.268Z,6.59
2017-02-17T05:49:32.803Z,6.49
2017-02-17T05:50:13.388Z,6.65
2017-02-17T05:50:53.820Z,6.59
2017-02-17T05:51:34.292Z,6.53
2017-02-17T05:52:14.706Z,6.56
2017-02-17T05:52:55.590Z,6.54
2017-02-17T05:53:36.364Z,6.49
2017-02-17T05:54:16.897Z,6.52
2017-02-17T05:54:57.944Z,6.39
2017-02-17T05:55:38.593Z,6.44
2017-02-17T05:56:19.061Z,6.46
2017-02-17T05:56:59.528Z,6.39
2017-02-17T05:57:39.970Z,6.41
2017-02-17T05:58:20.436Z,6.43
2017-02-17T05:59:00.861Z,6.41
2017-02-17T05:59:41.316Z,6.36
2017-02-17T06:00:21.798Z,6.31
2017-02-17T06:01:02.234Z,6.39
2017-02-17T06:01:42.707Z,6.39
2017-02-17T06:02:23.138Z,6.43
2017-02-17T06:03:03.613Z,6.43
2017-02-17T06:03:44.059Z,6.44
2017-02-17T06:04:24.585Z,6.41
2017-02-17T06:05:04.993Z,6.53
2017-02-17T06:05:45.483Z,6.56
2017-02-17T06:06:25.910Z,6.5
2017-02-17T06:07:06.441Z,6.5
2017-02-17T06:07:47.147Z,6.54
2017-02-17T06:08:28.112Z,6.6
2017-02-17T06:09:09.183Z,6.54
2017-02-17T06:09:49.035Z,6.54
2017-02-17T06:10:29.503Z,6.54
2017-02-17T06:11:09.952Z,6.43
2017-02-17T06:11:50.368Z,6.41
2017-02-17T06:12:30.815Z,6.41
2017-02-17T06:13:11.259Z,6.39
2017-02-17T06:13:51.749Z,6.39
2017-02-17T06:14:32.176Z,6.36
2017-02-17T06:15:12.636Z,6.31
2017-02-17T06:15:53.099Z,6.31
2017-02-17T06:16:33.518Z,6.28
2017-02-17T06:17:14.201Z,6.25
2017-02-17T06:17:54.653Z,6.17
2017-02-17T06:18:35.124Z,6.16
2017-02-17T06:19:15.600Z,6.13
2017-02-17T06:19:56.034Z,6.09
2017-02-17T06:20:36.452Z,6.16
2017-02-17T06:21:16.912Z,6.17
2017-02-17T06:21:57.366Z,6.02
2017-02-17T06:22:37.777Z,6.15
2017-02-17T06:23:18.248Z,6.19
2017-02-17T06:23:58.710Z,6.01
2017-02-17T06:24:39.222Z,6.05
2017-02-17T06:25:20.239Z,6.06
2017-02-17T06:26:00.779Z,6.07
2017-02-17T06:26:41.722Z,6.05
2017-02-17T06:27:22.473Z,6.07
2017-02-17T06:28:02.912Z,5.98
2017-02-17T06:28:43.354Z,5.95
2017-02-17T06:29:23.792Z,5.97
2017-02-17T06:30:04.226Z,5.94
2017-02-17T06:30:44.663Z,5.99
2017-02-17T06:31:25.122Z,5.94
2017-02-17T06:32:05.567Z,5.94
2017-02-17T06:32:46.036Z,5.95
2017-02-17T06:33:26.498Z,5.94
2017-02-17T06:34:06.901Z,5.9
2017-02-17T06:34:47.371Z,5.88
2017-02-17T06:35:27.821Z,5.83
2017-02-17T06:36:08.264Z,5.83
2017-02-17T06:36:48.722Z,5.8
2017-02-17T06:37:29.459Z,5.91
2017-02-17T06:38:09.964Z,5.8
2017-02-17T06:38:50.396Z,5.83
2017-02-17T06:39:30.865Z,5.77
2017-02-17T06:40:11.352Z,5.79
2017-02-17T06:40:51.753Z,5.76
2017-02-17T06:41:32.259Z,5.61
2017-02-17T06:42:12.721Z,5.62
2017-02-17T06:42:53.144Z,5.51
2017-02-17T06:43:33.605Z,5.61
2017-02-17T06:44:14.020Z,5.55
2017-02-17T06:44:54.472Z,5.54
2017-02-17T06:45:34.933Z,5.55
2017-02-17T06:46:15.391Z,5.44
2017-02-17T06:46:55.792Z,5.37
2017-02-17T06:47:36.244Z,5.43
2017-02-17T06:48:16.829Z,5.4
2017-02-17T06:48:57.312Z,5.41
2017-02-17T06:49:37.744Z,5.4
2017-02-17T06:50:18.175Z,5.43
2017-02-17T06:50:58.631Z,5.41
2017-02-17T06:51:39.109Z,5.33
2017-02-17T06:52:19.520Z,5.43
2017-02-17T06:53:00.000Z,5.43
2017-02-17T06:53:40.469Z,5.43
2017-02-17T06:54:21.024Z,5.36
2017-02-17T06:55:01.449Z,5.33
2017-02-17T06:55:41.891Z,5.34
2017-02-17T06:56:22.353Z,5.33
2017-02-17T06:57:02.823Z,5.38
2017-02-17T06:57:43.317Z,5.31
2017-02-17T06:58:23.791Z,5.26
2017-02-17T06:59:04.215Z,5.23
2017-02-17T06:59:44.731Z,5.25
2017-02-17T07:00:25.139Z,5.2
2017-02-17T07:01:05.550Z,5.13
2017-02-17T07:01:46.204Z,5.18
2017-02-17T07:02:26.652Z,5.22
2017-02-17T07:03:07.098Z,5.1
2017-02-17T07:03:47.551Z,5.13
2017-02-17T07:04:27.905Z,5.16
2017-02-17T07:05:08.348Z,5.12
2017-02-17T07:05:48.921Z,5.15
2017-02-17T07:06:29.396Z,5.22
2017-02-17T07:07:09.915Z,5.19
2017-02-17T07:07:50.277Z,5.22
2017-02-17T07:08:30.744Z,5.15
2017-02-17T07:09:11.245Z,5.13
2017-02-17T07:09:51.651Z,5.16
2017-02-17T07:10:32.105Z,5.16
2017-02-17T07:11:12.545Z,5.16
2017-02-17T07:11:53.091Z,5.2
2017-02-17T07:12:33.701Z,5.15
2017-02-17T07:13:14.129Z,5.18
2017-02-17T07:13:54.461Z,5.2
2017-02-17T07:14:34.909Z,5.22
2017-02-17T07:15:15.379Z,5.23
2017-02-17T07:15:55.847Z,5.31
2017-02-17T07:16:36.327Z,5.25
2017-02-17T07:17:17.039Z,5.25
2017-02-17T07:17:57.393Z,5.36
2017-02-17T07:18:37.844Z,5.41
2017-02-17T07:19:18.428Z,5.41
2017-02-17T07:19:58.772Z,5.38
2017-02-17T07:20:39.350Z,5.43
2017-02-17T07:21:19.711Z,5.46
2017-02-17T07:22:00.153Z,5.37
2017-02-17T07:22:40.625Z,5.43
2017-02-17T07:23:21.056Z,5.41
2017-02-17T07:24:01.531Z,5.51
2017-02-17T07:24:41.966Z,5.62
2017-02-17T07:25:22.441Z,5.56
2017-02-17T07:26:02.861Z,5.62
2017-02-17T07:26:43.373Z,5.72
2017-02-17T07:27:23.987Z,5.67
2017-02-17T07:28:04.471Z,5.74
2017-02-17T07:28:45.049Z,5.73
2017-02-17T07:29:25.536Z,5.83
2017-02-17T07:30:06.038Z,5.84
2017-02-17T07:30:46.452Z,5.88
2017-02-17T07:31:26.923Z,5.92
2017-02-17T07:32:07.575Z,6.07
2017-02-17T07:32:48.092Z,6.16
2017-02-17T07:33:28.529Z,6.35
2017-02-17T07:34:08.969Z,6.44
2017-02-17T07:34:49.492Z,6.54
2017-02-17T07:35:30.213Z,6.65
2017-02-17T07:36:10.728Z,6.77
2017-02-17T07:36:51.199Z,6.85
2017-02-17T07:37:33.431Z,6.87
2017-02-17T07:38:13.887Z,7.05
2017-02-17T07:38:54.393Z,7.07
2017-02-17T07:39:34.836Z,7.03
2017-02-17T07:40:15.354Z,7.19
2017-02-17T07:40:55.727Z,7.25
2017-02-17T07:41:37.408Z,7.23
2017-02-17T07:42:16.602Z,7.22
2017-02-17T07:42:57.090Z,7.25
2017-02-17T07:43:37.529Z,7.26
2017-02-17T07:44:17.993Z,7.25
2017-02-17T07:44:58.441Z,7.21
2017-02-17T07:45:38.906Z,7.19
2017-02-17T07:46:19.376Z,7.11
2017-02-17T07:46:59.818Z,7.08
2017-02-17T07:47:40.291Z,7.03
2017-02-17T07:48:20.839Z,6.92
2017-02-17T07:49:01.505Z,6.83
2017-02-17T07:49:42.181Z,6.75
2017-02-17T07:50:22.637Z,6.75
2017-02-17T07:51:03.088Z,6.64
2017-02-17T07:51:43.727Z,6.57
2017-02-17T07:52:24.195Z,6.53
2017-02-17T07:53:04.671Z,6.5
2017-02-17T07:53:45.098Z,6.46
2017-02-17T07:54:25.529Z,6.46
2017-02-17T07:55:05.962Z,6.43
2017-02-17T07:55:46.598Z,6.43
2017-02-17T07:56:26.883Z,6.5
2017-02-17T07:57:07.310Z,6.46
2017-02-17T07:57:47.786Z,6.53
2017-02-17T07:58:28.280Z,6.59
2017-02-17T07:59:08.731Z,6.6
2017-02-17T07:59:49.147Z,6.68
2017-02-17T08:00:29.649Z,6.77
2017-02-17T08:01:10.172Z,6.72
2017-02-17T08:01:50.630Z,6.78
2017-02-17T08:02:31.103Z,6.83
2017-02-17T08:03:11.542Z,6.95
2017-02-17T08:03:52.178Z,6.87
2017-02-17T08:04:32.459Z,7.04
2017-02-17T08:05:12.954Z,6.97
2017-02-17T08:05:53.407Z,7.1
2017-02-17T08:06:33.889Z,7.1
2017-02-17T08:07:14.359Z,7.03
2017-02-17T08:07:54.803Z,7.07
2017-02-17T08:08:35.251Z,7.19
2017-02-17T08:09:15.716Z,7.29
2017-02-17T08:09:56.934Z,7.22
2017-02-17T08:10:37.387Z,7.32
2017-02-17T08:11:18.160Z,7.28
2017-02-17T08:11:59.176Z,7.4
2017-02-17T08:12:40.427Z,7.37
2017-02-17T08:13:21.144Z,7.46
2017-02-17T08:14:01.938Z,7.43
2017-02-17T08:14:42.170Z,7.51
2017-02-17T08:15:22.674Z,7.59
2017-02-17T08:16:03.105Z,7.58
2017-02-17T08:16:43.556Z,7.67
2017-02-17T08:17:24.061Z,7.78
2017-02-17T08:18:04.576Z,7.81
2017-02-17T08:18:45.116Z,7.88
2017-02-17T08:19:25.578Z,7.91
2017-02-17T08:20:06.014Z,7.96
2017-02-17T08:20:46.450Z,8.02
2017-02-17T08:21:27.072Z,8.09
2017-02-17T08:22:07.479Z,8.11
2017-02-17T08:22:48.052Z,7.99
2017-02-17T08:23:28.500Z,8.11
2017-02-17T08:24:08.984Z,8.16
2017-02-17T08:24:49.410Z,8.2
2017-02-17T08:25:29.980Z,8.24
2017-02-17T08:26:10.731Z,8.21
2017-02-17T08:26:51.231Z,8.28
2017-02-17T08:27:31.624Z,8.34
2017-02-17T08:28:12.129Z,8.32
2017-02-17T08:28:52.844Z,8.32
2017-02-17T08:29:33.390Z,8.41
2017-02-17T08:31:21.097Z,8.53
2017-02-17T08:32:01.520Z,8.57
2017-02-17T08:32:41.955Z,8.69
2017-02-17T08:33:22.433Z,8.81
2017-02-17T08:34:03.005Z,8.86
2017-02-17T08:34:43.312Z,8.82
2017-02-17T08:35:23.810Z,8.87
2017-02-17T08:36:04.318Z,8.87
2017-02-17T08:36:44.775Z,8.96
2017-02-17T08:37:25.196Z,8.99
2017-02-17T08:38:05.884Z,9.08
2017-02-17T08:38:46.801Z,9.11
2017-02-17T08:39:27.740Z,9.18
2017-02-17T08:40:09.087Z,9.27
2017-02-17T08:40:48.715Z,9.31
2017-02-17T08:41:29.162Z,9.4
2017-02-17T08:42:09.605Z,9.47
2017-02-17T08:42:50.075Z,9.62
2017-02-17T08:43:30.545Z,9.66
2017-02-17T08:44:10.994Z,9.64
2017-02-17T08:44:51.449Z,9.73
2017-02-17T08:45:31.902Z,9.76
2017-02-17T08:46:12.346Z,9.82
2017-02-17T08:46:52.790Z,9.77
2017-02-17T08:47:33.266Z,9.9
2017-02-17T08:48:13.711Z,9.95
2017-02-17T08:48:54.187Z,10.09
2017-02-17T08:49:34.609Z,10.12
2017-02-17T08:50:15.087Z,10.36
2017-02-17T08:50:55.514Z,10.49
2017-02-17T08:51:35.959Z,10.48
2017-02-17T08:52:16.420Z,10.49
2017-02-17T08:52:56.886Z,10.64
2017-02-17T08:53:37.362Z,10.76
2017-02-17T08:54:17.805Z,10.72
2017-02-17T08:54:58.275Z,10.84
2017-02-17T08:55:39.913Z,10.87
2017-02-17T08:56:20.391Z,11
2017-02-17T08:57:00.896Z,11.1
2017-02-17T08:57:41.327Z,11.16
2017-02-17T08:58:21.768Z,11.26
2017-02-17T08:59:03.103Z,11.3
2017-02-17T08:59:43.562Z,11.33
2017-02-17T09:00:24.222Z,11.35
2017-02-17T09:01:04.682Z,11.22
2017-02-17T09:01:45.243Z,11.1
2017-02-17T09:02:25.699Z,10.98
2017-02-17T09:03:06.611Z,11